Time;durP1;ratioP1;P1;durP2;ratioP2;P2;SDS_P1;SDS_P2;PMS_P1;PMS_P2;Temp;Humidity;BMP_temperature;BMP_pressure;BME280_temperature;BME280_humidity;BME280_pressure;Samples;Min_cycle;Max_cycle;Signal;HPM_P1;HPM_P2
2022/05/06 00:00:06;;;;;;;3.88;2.83;;;;;;;;;;5081519;28;20205;-81
2022/05/06 00:02:34;;;;;;;2.92;2.63;;;;;;;;;;5086768;28;20216;-82
2022/05/06 00:05:01;;;;;;;2.90;2.63;;;;;;;;;;5088924;28;20209;-82
2022/05/06 00:07:28;;;;;;;5.35;3.40;;;;;;;;;;5091014;28;20189;-82
2022/05/06 00:09:55;;;;;;;5.18;2.33;;;;;;;;;;5080860;28;20240;-83
2022/05/06 00:12:22;;;;;;;3.58;2.45;;;;;;;;;;5082549;28;20288;-81
2022/05/06 00:14:51;;;;;;;10.30;2.92;;;;;;;;;;5081373;28;20210;-81
2022/05/06 00:17:18;;;;;;;3.85;2.70;;;;;;;;;;5085591;28;20201;-81
2022/05/06 00:19:45;;;;;;;2.75;2.55;;;;;;;;;;5086070;28;20201;-81
2022/05/06 00:22:12;;;;;;;3.33;3.03;;;;;;;;;;5083497;28;20246;-81
2022/05/06 00:24:40;;;;;;;5.00;3.20;;;;;;;;;;5081182;28;20672;-81
2022/05/06 00:27:07;;;;;;;3.20;2.13;;;;;;;;;;5090059;28;20567;-81
2022/05/06 00:29:35;;;;;;;3.45;3.15;;;;;;;;;;5085732;28;20208;-81
2022/05/06 00:32:03;;;;;;;2.42;2.22;;;;;;;;;;5083845;28;20197;-81
2022/05/06 00:34:31;;;;;;;3.95;2.67;;;;;;;;;;5085489;28;20209;-81
2022/05/06 00:36:58;;;;;;;3.72;3.05;;;;;;;;;;5090612;28;20236;-81
2022/05/06 00:39:25;;;;;;;4.47;3.28;;;;;;;;;;5082018;28;20202;-81
2022/05/06 00:41:54;;;;;;;3.50;2.58;;;;;;;;;;5087907;28;20303;-82
2022/05/06 00:44:22;;;;;;;2.80;2.60;;;;;;;;;;5088240;28;20190;-82
2022/05/06 00:46:52;;;;;;;4.30;3.15;;;;;;;;;;5079608;28;20210;-82
2022/05/06 00:49:20;;;;;;;3.08;2.20;;;;;;;;;;5090465;28;20190;-82
2022/05/06 00:51:48;;;;;;;3.08;2.70;;;;;;;;;;5090507;28;20235;-81
2022/05/06 00:54:16;;;;;;;4.22;3.00;;;;;;;;;;5086375;28;20204;-81
2022/05/06 00:56:46;;;;;;;3.15;2.17;;;;;;;;;;5088302;28;20189;-82
2022/05/06 00:59:14;;;;;;;3.35;3.05;;;;;;;;;;5090447;28;20202;-81
2022/05/06 01:01:41;;;;;;;2.25;2.05;;;;;;;;;;5081906;28;20201;-81
2022/05/06 01:04:09;;;;;;;2.58;2.17;;;;;;;;;;5086935;28;20216;-82
2022/05/06 01:06:38;;;;;;;3.13;2.55;;;;;;;;;;5089201;28;20277;-82
2022/05/06 01:09:05;;;;;;;2.42;2.05;;;;;;;;;;5086948;28;20198;-81
2022/05/06 01:11:33;;;;;;;5.32;2.20;;;;;;;;;;5090813;28;20266;-81
2022/05/06 01:14:00;;;;;;;3.22;2.85;;;;;;;;;;5087426;28;20189;-81
2022/05/06 01:16:33;;;;;;;2.20;2.00;;;;;;;;;;5086827;28;20688;-81
2022/05/06 01:19:00;;;;;;;2.95;2.30;;;;;;;;;;5086403;28;20549;-82
2022/05/06 01:21:28;;;;;;;3.33;2.63;;;;;;;;;;5090013;28;20213;-81
2022/05/06 01:23:56;;;;;;;2.03;1.77;;;;;;;;;;5088934;28;20205;-81
2022/05/06 01:26:23;;;;;;;2.42;2.22;;;;;;;;;;5093120;28;20205;-81
2022/05/06 01:28:51;;;;;;;2.80;2.50;;;;;;;;;;5095894;28;20201;-81
2022/05/06 01:31:21;;;;;;;2.90;2.28;;;;;;;;;;5083657;28;20206;-81
2022/05/06 01:33:54;;;;;;;3.10;2.58;;;;;;;;;;5086731;28;20212;-81
2022/05/06 01:36:23;;;;;;;3.67;2.67;;;;;;;;;;5092415;28;20269;-81
2022/05/06 01:38:52;;;;;;;2.55;2.20;;;;;;;;;;5091004;28;20228;-81
2022/05/06 01:41:23;;;;;;;3.35;2.75;;;;;;;;;;5088085;28;20209;-81
2022/05/06 01:43:55;;;;;;;2.92;2.70;;;;;;;;;;5090627;28;20189;-81
2022/05/06 01:46:24;;;;;;;4.43;2.72;;;;;;;;;;5090483;28;20200;-81
2022/05/06 01:48:52;;;;;;;3.55;3.00;;;;;;;;;;5092349;28;20193;-81
2022/05/06 01:51:21;;;;;;;3.08;2.78;;;;;;;;;;5091453;28;20243;-81
2022/05/06 01:53:48;;;;;;;3.72;2.70;;;;;;;;;;5091513;28;20204;-81
2022/05/06 01:56:18;;;;;;;3.40;2.78;;;;;;;;;;5083859;28;20220;-81
2022/05/06 01:58:47;;;;;;;4.82;2.42;;;;;;;;;;5091139;28;20196;-81
2022/05/06 02:01:14;;;;;;;5.50;2.15;;;;;;;;;;5089774;28;20201;-81
2022/05/06 02:06:26;;;;;;;2.83;2.33;;;;;;;;;;5090607;28;20286;-81
2022/05/06 02:08:53;;;;;;;5.93;2.58;;;;;;;;;;5081610;28;20651;-82
2022/05/06 02:11:20;;;;;;;2.80;2.22;;;;;;;;;;5089276;28;20197;-81
2022/05/06 02:13:48;;;;;;;4.05;3.75;;;;;;;;;;5090486;28;20194;-81
2022/05/06 02:16:17;;;;;;;2.42;1.90;;;;;;;;;;5088245;28;20221;-82
2022/05/06 02:18:44;;;;;;;4.85;2.80;;;;;;;;;;5090676;28;20657;-81
2022/05/06 02:21:11;;;;;;;2.88;2.67;;;;;;;;;;5086504;28;20279;-81
2022/05/06 02:23:38;;;;;;;2.80;2.60;;;;;;;;;;5089525;28;20218;-81
2022/05/06 02:26:05;;;;;;;2.97;2.72;;;;;;;;;;5091934;28;20190;-81
2022/05/06 02:28:32;;;;;;;2.92;2.70;;;;;;;;;;5089645;28;20205;-82
2022/05/06 02:33:45;;;;;;;3.40;2.53;;;;;;;;;;5088745;28;20239;-81
2022/05/06 02:36:12;;;;;;;4.20;2.92;;;;;;;;;;5089114;28;20225;-82
2022/05/06 02:38:40;;;;;;;2.58;1.90;;;;;;;;;;5084268;28;20710;-84
2022/05/06 02:41:07;;;;;;;3.30;3.00;;;;;;;;;;5091786;28;20213;-84
2022/05/06 02:43:34;;;;;;;5.22;2.13;;;;;;;;;;5083540;28;20221;-84
2022/05/06 02:46:02;;;;;;;2.97;2.78;;;;;;;;;;5088624;28;20655;-82
2022/05/06 02:48:29;;;;;;;2.45;2.20;;;;;;;;;;5085293;28;20208;-82
2022/05/06 02:50:56;;;;;;;3.55;2.30;;;;;;;;;;5091589;28;20200;-79
2022/05/06 02:53:24;;;;;;;3.25;2.47;;;;;;;;;;5085505;28;20193;-80
2022/05/06 02:55:51;;;;;;;3.17;1.90;;;;;;;;;;5086848;28;20217;-80
2022/05/06 02:58:18;;;;;;;2.92;2.60;;;;;;;;;;5090582;28;20208;-80
2022/05/06 03:00:45;;;;;;;2.78;1.98;;;;;;;;;;5082909;28;20194;-81
2022/05/06 03:03:13;;;;;;;2.65;2.10;;;;;;;;;;5084245;28;20652;-80
2022/05/06 03:05:40;;;;;;;2.42;2.22;;;;;;;;;;5086432;28;20559;-80
2022/05/06 03:08:08;;;;;;;2.70;2.50;;;;;;;;;;5090938;28;20686;-80
2022/05/06 03:10:35;;;;;;;2.47;2.28;;;;;;;;;;5080854;28;20249;-80
2022/05/06 03:13:02;;;;;;;3.47;2.85;;;;;;;;;;5087265;28;20656;-80
2022/05/06 03:15:30;;;;;;;3.42;2.63;;;;;;;;;;5084121;28;20230;-80
2022/05/06 03:17:57;;;;;;;2.88;2.50;;;;;;;;;;5090239;28;20676;-80
2022/05/06 03:20:26;;;;;;;2.38;2.17;;;;;;;;;;5086225;28;20212;-80
2022/05/06 03:22:53;;;;;;;2.50;2.30;;;;;;;;;;5086431;28;20276;-80
2022/05/06 03:25:21;;;;;;;2.25;2.05;;;;;;;;;;5089116;28;20205;-80
2022/05/06 03:28:02;;;;;;;2.95;2.28;;;;;;;;;;5087900;28;20732;-81
2022/05/06 03:30:31;;;;;;;3.67;2.35;;;;;;;;;;5082362;28;20197;-81
2022/05/06 03:32:58;;;;;;;3.08;2.67;;;;;;;;;;5089575;28;20193;-81
2022/05/06 03:35:28;;;;;;;2.22;1.75;;;;;;;;;;5087960;28;20221;-81
2022/05/06 03:37:55;;;;;;;2.42;2.22;;;;;;;;;;5079629;28;20193;-80
2022/05/06 03:40:22;;;;;;;3.05;2.05;;;;;;;;;;5087592;28;20202;-79
2022/05/06 03:42:49;;;;;;;2.80;2.53;;;;;;;;;;5086609;28;20217;-79
2022/05/06 03:45:17;;;;;;;3.63;2.35;;;;;;;;;;5084242;28;20573;-79
2022/05/06 03:47:44;;;;;;;2.50;2.30;;;;;;;;;;5089013;28;20205;-79
2022/05/06 03:52:58;;;;;;;3.15;2.00;;;;;;;;;;5083276;28;20632;-79
2022/05/06 03:55:26;;;;;;;2.45;1.90;;;;;;;;;;5088049;28;20217;-80
2022/05/06 03:57:53;;;;;;;2.83;2.33;;;;;;;;;;5087372;28;20284;-80
2022/05/06 04:00:20;;;;;;;2.50;2.20;;;;;;;;;;5086162;28;20663;-80
2022/05/06 04:02:47;;;;;;;4.90;2.90;;;;;;;;;;5089018;28;20197;-80
2022/05/06 04:05:14;;;;;;;3.05;2.10;;;;;;;;;;5087919;28;20204;-79
2022/05/06 04:07:42;;;;;;;2.60;2.17;;;;;;;;;;5089112;28;20644;-80
2022/05/06 04:10:10;;;;;;;2.45;2.25;;;;;;;;;;5083202;28;20216;-81
2022/05/06 04:12:37;;;;;;;4.82;2.53;;;;;;;;;;5087416;28;20197;-79
2022/05/06 04:15:06;;;;;;;3.38;2.85;;;;;;;;;;5087945;28;20197;-80
2022/05/06 04:17:33;;;;;;;3.85;2.20;;;;;;;;;;5084895;28;20197;-81
2022/05/06 04:25:31;;;;;;;3.15;2.60;;;;;;;;;;5088677;28;20246;-81
2022/05/06 04:27:58;;;;;;;2.88;2.47;;;;;;;;;;5084052;28;20197;-80
2022/05/06 04:30:25;;;;;;;2.97;2.58;;;;;;;;;;5084259;28;20842;-79
2022/05/06 04:32:52;;;;;;;2.40;2.20;;;;;;;;;;5088735;28;20512;-80
2022/05/06 04:35:19;;;;;;;2.78;1.80;;;;;;;;;;5087370;28;20674;-80
2022/05/06 04:37:47;;;;;;;2.17;1.98;;;;;;;;;;5084136;28;20225;-78
2022/05/06 04:40:14;;;;;;;2.90;2.10;;;;;;;;;;5083330;28;20205;-79
2022/05/06 04:42:42;;;;;;;4.18;2.58;;;;;;;;;;5087975;28;20648;-79
2022/05/06 04:45:10;;;;;;;3.22;2.92;;;;;;;;;;5083162;28;20606;-80
2022/05/06 04:47:37;;;;;;;3.22;2.50;;;;;;;;;;5086522;28;20197;-77
2022/05/06 04:50:04;;;;;;;2.85;2.47;;;;;;;;;;5085649;28;20291;-80
2022/05/06 04:52:31;;;;;;;2.58;2.38;;;;;;;;;;5090176;28;20201;-81
2022/05/06 04:54:59;;;;;;;2.80;2.55;;;;;;;;;;5078828;28;20189;-81
2022/05/06 04:57:26;;;;;;;3.00;2.80;;;;;;;;;;5083554;28;20221;-81
2022/05/06 04:59:54;;;;;;;3.67;3.08;;;;;;;;;;5088503;28;20229;-80
2022/05/06 05:02:21;;;;;;;2.05;1.95;;;;;;;;;;5090302;28;20205;-79
2022/05/06 05:04:52;;;;;;;4.30;2.53;;;;;;;;;;5092914;28;20200;-79
2022/05/06 05:07:20;;;;;;;3.00;2.45;;;;;;;;;;5091587;28;20197;-79
2022/05/06 05:09:47;;;;;;;3.03;2.72;;;;;;;;;;5092961;28;20194;-79
2022/05/06 05:12:14;;;;;;;3.53;2.58;;;;;;;;;;5091589;28;20644;-79
2022/05/06 05:14:42;;;;;;;7.05;3.38;;;;;;;;;;5085692;28;20557;-79
2022/05/06 05:17:11;;;;;;;3.35;3.05;;;;;;;;;;5080741;28;20672;-78
2022/05/06 05:19:38;;;;;;;2.78;2.58;;;;;;;;;;5089954;28;20201;-79
2022/05/06 05:22:05;;;;;;;3.28;2.97;;;;;;;;;;5090218;28;20197;-78
2022/05/06 05:24:32;;;;;;;2.92;2.25;;;;;;;;;;5088611;28;20284;-78
2022/05/06 05:26:59;;;;;;;3.30;2.67;;;;;;;;;;5093186;28;20212;-79
2022/05/06 05:29:27;;;;;;;2.50;2.30;;;;;;;;;;5087910;28;20197;-78
2022/05/06 05:31:54;;;;;;;3.70;2.83;;;;;;;;;;5089878;28;20200;-79
2022/05/06 05:34:22;;;;;;;3.05;2.53;;;;;;;;;;5091528;28;20198;-78
2022/05/06 05:36:50;;;;;;;4.82;3.63;;;;;;;;;;5092185;28;20213;-78
2022/05/06 05:39:17;;;;;;;4.28;3.88;;;;;;;;;;5088106;28;20202;-79
2022/05/06 05:41:44;;;;;;;3.75;2.50;;;;;;;;;;5090038;28;20687;-79
2022/05/06 05:49:43;;;;;;;3.42;3.13;;;;;;;;;;5087809;28;20241;-79
2022/05/06 05:52:10;;;;;;;4.32;2.90;;;;;;;;;;5085775;28;20203;-79
2022/05/06 05:54:37;;;;;;;4.63;3.08;;;;;;;;;;5086684;28;20245;-78
2022/05/06 05:57:05;;;;;;;3.72;3.20;;;;;;;;;;5083260;28;20743;-79
2022/05/06 05:59:33;;;;;;;3.60;2.55;;;;;;;;;;5088539;28;20208;-78
2022/05/06 06:02:01;;;;;;;6.57;3.60;;;;;;;;;;5089520;28;20198;-78
2022/05/06 06:04:28;;;;;;;2.35;2.15;;;;;;;;;;5079084;28;20221;-78
2022/05/06 06:06:57;;;;;;;3.08;2.78;;;;;;;;;;5082633;28;20190;-80
2022/05/06 06:09:24;;;;;;;3.08;2.60;;;;;;;;;;5084972;28;20289;-78
2022/05/06 06:11:51;;;;;;;2.40;2.17;;;;;;;;;;5082071;28;20201;-81
2022/05/06 06:14:19;;;;;;;5.05;2.65;;;;;;;;;;5084532;28;22034;-79
2022/05/06 06:16:47;;;;;;;2.80;2.42;;;;;;;;;;5082006;28;20216;-79
2022/05/06 06:19:15;;;;;;;3.22;2.67;;;;;;;;;;5090657;28;20260;-79
2022/05/06 06:21:42;;;;;;;5.60;2.85;;;;;;;;;;5080327;28;20653;-79
2022/05/06 06:24:11;;;;;;;3.22;2.72;;;;;;;;;;5078743;28;20219;-79
2022/05/06 06:26:38;;;;;;;2.50;2.20;;;;;;;;;;5081016;28;20292;-78
2022/05/06 06:29:05;;;;;;;2.80;2.60;;;;;;;;;;5085612;28;20206;-79
2022/05/06 06:31:33;;;;;;;4.43;2.88;;;;;;;;;;5084814;28;20197;-79
2022/05/06 06:34:00;;;;;;;4.15;2.85;;;;;;;;;;5083859;28;20202;-79
2022/05/06 06:36:27;;;;;;;2.22;2.03;;;;;;;;;;5084034;28;20345;-79
2022/05/06 06:38:54;;;;;;;6.82;3.03;;;;;;;;;;5084723;28;21651;-79
2022/05/06 06:41:23;;;;;;;3.78;2.22;;;;;;;;;;5081751;28;20301;-80
2022/05/06 06:43:50;;;;;;;2.40;2.20;;;;;;;;;;5083113;28;20203;-79
2022/05/06 06:46:17;;;;;;;2.60;2.40;;;;;;;;;;5082988;28;20556;-80
2022/05/06 06:48:47;;;;;;;2.30;2.10;;;;;;;;;;5084852;28;20203;-80
2022/05/06 06:51:14;;;;;;;2.67;2.40;;;;;;;;;;5084850;28;20208;-81
2022/05/06 06:53:41;;;;;;;2.40;2.20;;;;;;;;;;5087601;28;20223;-81
2022/05/06 06:56:08;;;;;;;3.08;2.08;;;;;;;;;;5084168;28;20202;-81
2022/05/06 06:58:36;;;;;;;4.47;2.30;;;;;;;;;;5078824;28;20199;-80
2022/05/06 07:01:03;;;;;;;2.92;2.67;;;;;;;;;;5082999;28;20201;-81
2022/05/06 07:03:31;;;;;;;13.32;8.50;;;;;;;;;;5086010;28;20205;-87
2022/05/06 07:14:14;;;;;;;13.00;8.80;;;;;;;;;;5088177;28;20255;-84
2022/05/06 07:16:41;;;;;;;10.70;8.60;;;;;;;;;;5091351;28;20449;-85
2022/05/06 07:19:08;;;;;;;8.05;6.60;;;;;;;;;;5089324;28;20198;-85
2022/05/06 07:21:35;;;;;;;10.25;7.45;;;;;;;;;;5082110;28;20291;-81
2022/05/06 07:24:03;;;;;;;6.43;5.70;;;;;;;;;;5085052;28;20232;-81
2022/05/06 07:26:30;;;;;;;8.55;5.25;;;;;;;;;;5089531;28;20190;-81
2022/05/06 07:28:57;;;;;;;6.55;5.05;;;;;;;;;;5089551;28;20284;-83
2022/05/06 07:31:26;;;;;;;13.07;5.50;;;;;;;;;;5086577;28;20193;-83
2022/05/06 07:33:53;;;;;;;6.20;4.60;;;;;;;;;;5083896;28;20941;-83
2022/05/06 07:36:23;;;;;;;7.32;4.50;;;;;;;;;;5085310;28;20197;-83
2022/05/06 07:38:50;;;;;;;7.18;4.05;;;;;;;;;;5087783;28;20300;-83
2022/05/06 07:41:17;;;;;;;7.07;4.05;;;;;;;;;;5085078;28;20613;-84
2022/05/06 07:43:44;;;;;;;4.38;3.70;;;;;;;;;;5087686;28;20461;-84
2022/05/06 07:46:11;;;;;;;3.92;3.53;;;;;;;;;;5090302;28;20213;-86
2022/05/06 07:48:40;;;;;;;7.28;3.50;;;;;;;;;;5085339;28;20320;-84
2022/05/06 07:51:07;;;;;;;4.88;3.58;;;;;;;;;;5089697;28;20201;-84
2022/05/06 07:53:34;;;;;;;4.30;3.30;;;;;;;;;;5088034;28;20204;-84
2022/05/06 07:56:01;;;;;;;5.43;4.05;;;;;;;;;;5083698;28;20687;-83
2022/05/06 07:58:30;;;;;;;5.50;3.10;;;;;;;;;;5088808;28;20221;-84
2022/05/06 08:00:57;;;;;;;4.03;2.78;;;;;;;;;;5086866;28;20201;-84
2022/05/06 08:06:11;;;;;;;3.97;2.90;;;;;;;;;;5083971;28;20200;-84
2022/05/06 08:08:39;;;;;;;4.80;3.35;;;;;;;;;;5086676;28;20194;-85
2022/05/06 08:11:06;;;;;;;5.20;3.72;;;;;;;;;;5090620;28;20201;-85
2022/05/06 08:13:33;;;;;;;7.38;3.60;;;;;;;;;;5092668;28;20197;-85
2022/05/06 08:16:00;;;;;;;3.90;3.45;;;;;;;;;;5082014;28;20198;-85
2022/05/06 08:18:28;;;;;;;3.95;2.80;;;;;;;;;;5087175;28;20221;-84
2022/05/06 08:20:55;;;;;;;2.40;2.20;;;;;;;;;;5091523;28;20262;-85
2022/05/06 08:23:23;;;;;;;8.52;3.00;;;;;;;;;;5085623;28;20580;-85
2022/05/06 08:25:51;;;;;;;4.78;3.45;;;;;;;;;;5087201;28;20190;-85
2022/05/06 08:28:19;;;;;;;3.85;2.50;;;;;;;;;;5089961;28;20198;-84
2022/05/06 08:30:46;;;;;;;4.38;3.65;;;;;;;;;;5089678;28;20205;-84
2022/05/06 08:33:14;;;;;;;3.58;3.00;;;;;;;;;;5086776;28;20223;-85
2022/05/06 08:35:41;;;;;;;4.93;2.47;;;;;;;;;;5084797;28;20205;-84
2022/05/06 08:38:08;;;;;;;4.05;3.05;;;;;;;;;;5089127;28;20217;-85
2022/05/06 08:40:37;;;;;;;3.47;2.78;;;;;;;;;;5084869;28;20196;-84
2022/05/06 08:43:04;;;;;;;3.50;2.72;;;;;;;;;;5081240;28;20213;-83
2022/05/06 08:51:02;;;;;;;4.15;2.83;;;;;;;;;;5087272;28;20212;-83
2022/05/06 08:53:30;;;;;;;3.28;2.47;;;;;;;;;;5083687;28;20661;-82
2022/05/06 08:56:02;;;;;;;3.13;2.78;;;;;;;;;;5086215;28;20576;-84
2022/05/06 08:58:34;;;;;;;3.78;3.08;;;;;;;;;;5089118;28;20580;-83
2022/05/06 09:01:03;;;;;;;3.15;2.75;;;;;;;;;;5083773;28;20247;-83
2022/05/06 09:03:30;;;;;;;5.05;3.10;;;;;;;;;;5082015;28;20318;-84
2022/05/06 09:05:58;;;;;;;2.80;2.45;;;;;;;;;;5086201;28;20209;-84
2022/05/06 09:08:35;;;;;;;2.95;2.47;;;;;;;;;;5073447;28;20200;-83
2022/05/06 09:11:05;;;;;;;3.25;2.42;;;;;;;;;;5082717;28;20206;-83
2022/05/06 09:13:32;;;;;;;6.03;2.72;;;;;;;;;;5081783;28;20197;-84
2022/05/06 09:19:13;;;;;;;8.18;6.25;;;;;;;;;;5078483;28;20211;-84
2022/05/06 09:21:40;;;;;;;7.30;6.53;;;;;;;;;;5082810;28;20209;-87
2022/05/06 09:24:17;;;;;;;11.40;6.90;;;;;;;;;;5079308;28;20584;-87
2022/05/06 09:26:58;;;;;;;8.82;6.78;;;;;;;;;;5082945;28;20250;-85
2022/05/06 09:29:28;;;;;;;10.00;6.87;;;;;;;;;;5077131;28;20263;-87
2022/05/06 09:31:56;;;;;;;10.83;6.40;;;;;;;;;;5086508;28;20487;-85
2022/05/06 09:34:28;;;;;;;7.03;6.33;;;;;;;;;;5085293;28;20838;-86
2022/05/06 09:36:55;;;;;;;10.77;7.23;;;;;;;;;;5081769;28;20825;-84
2022/05/06 09:39:23;;;;;;;11.63;6.53;;;;;;;;;;5083194;28;20467;-84
2022/05/06 09:42:03;;;;;;;6.88;6.20;;;;;;;;;;5085924;28;20229;-84
2022/05/06 09:44:33;;;;;;;9.85;7.10;;;;;;;;;;5080511;28;20213;-84
2022/05/06 09:47:10;;;;;;;15.32;7.55;;;;;;;;;;5089893;28;20221;-83
2022/05/06 09:49:41;;;;;;;10.85;8.18;;;;;;;;;;5084930;28;20623;-85
2022/05/06 09:52:14;;;;;;;11.43;7.13;;;;;;;;;;5090089;28;20576;-85
2022/05/06 09:54:45;;;;;;;9.85;7.30;;;;;;;;;;5085752;28;20692;-83
2022/05/06 09:57:13;;;;;;;11.40;9.07;;;;;;;;;;5087120;28;20224;-87
2022/05/06 09:59:41;;;;;;;8.90;6.53;;;;;;;;;;5079487;28;20206;-82
2022/05/06 10:02:09;;;;;;;7.15;5.93;;;;;;;;;;5085549;28;20881;-82
2022/05/06 10:04:36;;;;;;;9.75;5.75;;;;;;;;;;5081992;28;20202;-81
2022/05/06 10:07:06;;;;;;;16.90;5.15;;;;;;;;;;5087533;28;20198;-81
2022/05/06 10:09:34;;;;;;;5.53;4.32;;;;;;;;;;5082738;28;20206;-82
2022/05/06 10:12:03;;;;;;;7.90;4.07;;;;;;;;;;5089090;28;20198;-83
2022/05/06 10:14:30;;;;;;;4.97;3.72;;;;;;;;;;5084357;28;21229;-82
2022/05/06 10:16:58;;;;;;;9.00;4.10;;;;;;;;;;5088196;28;20197;-82
2022/05/06 10:19:26;;;;;;;4.78;3.47;;;;;;;;;;5081784;28;20208;-81
2022/05/06 10:21:53;;;;;;;4.45;3.33;;;;;;;;;;5089138;28;20229;-82
2022/05/06 10:24:21;;;;;;;5.03;3.33;;;;;;;;;;5084301;28;20216;-81
2022/05/06 10:26:48;;;;;;;3.85;3.22;;;;;;;;;;5089493;28;20217;-79
2022/05/06 10:32:47;;;;;;;5.25;4.30;;;;;;;;;;5081486;28;20595;-83
2022/05/06 10:35:15;;;;;;;4.97;3.60;;;;;;;;;;5087788;28;20208;-82
2022/05/06 10:37:44;;;;;;;5.05;4.10;;;;;;;;;;5085370;28;20227;-81
2022/05/06 10:40:33;;;;;;;4.05;3.33;;;;;;;;;;5079800;28;20206;-82
2022/05/06 10:43:04;;;;;;;5.43;4.03;;;;;;;;;;5086051;28;20224;-81
2022/05/06 10:45:33;;;;;;;5.32;4.72;;;;;;;;;;5082564;28;20576;-80
2022/05/06 10:48:02;;;;;;;4.82;4.05;;;;;;;;;;5088228;28;20679;-82
2022/05/06 10:50:39;;;;;;;5.55;4.65;;;;;;;;;;5086350;28;20672;-82
2022/05/06 10:53:06;;;;;;;6.10;3.55;;;;;;;;;;5079376;28;20585;-82
2022/05/06 10:55:33;;;;;;;3.90;3.50;;;;;;;;;;5077727;28;20202;-81
2022/05/06 10:58:01;;;;;;;6.22;3.90;;;;;;;;;;5081328;28;20283;-82
2022/05/06 11:00:29;;;;;;;3.80;3.28;;;;;;;;;;5085617;28;20202;-82
2022/05/06 11:02:59;;;;;;;4.60;4.10;;;;;;;;;;5084599;28;20198;-82
2022/05/06 11:05:29;;;;;;;4.28;3.65;;;;;;;;;;5079728;28;20205;-82
2022/05/06 11:07:57;;;;;;;4.07;3.67;;;;;;;;;;5087673;28;20189;-82
2022/05/06 11:10:25;;;;;;;3.10;2.30;;;;;;;;;;5085873;28;20197;-82
2022/05/06 11:12:53;;;;;;;2.67;2.47;;;;;;;;;;5087160;28;20293;-82
2022/05/06 11:15:21;;;;;;;5.00;3.25;;;;;;;;;;5084051;28;20312;-82
2022/05/06 11:17:49;;;;;;;3.42;3.10;;;;;;;;;;5086538;28;20213;-81
2022/05/06 11:20:18;;;;;;;4.05;3.30;;;;;;;;;;5088598;28;20687;-82
2022/05/06 11:22:53;;;;;;;3.80;2.67;;;;;;;;;;5086050;28;20205;-82
2022/05/06 11:25:21;;;;;;;3.40;2.95;;;;;;;;;;5077781;28;20202;-82
2022/05/06 11:27:49;;;;;;;4.07;3.17;;;;;;;;;;5082914;28;20229;-82
2022/05/06 11:30:20;;;;;;;2.90;2.60;;;;;;;;;;5085211;28;20197;-81
2022/05/06 11:32:51;;;;;;;2.80;2.50;;;;;;;;;;5083794;28;20565;-82
2022/05/06 11:35:22;;;;;;;2.60;2.40;;;;;;;;;;5086798;28;20202;-82
2022/05/06 11:37:49;;;;;;;4.20;3.15;;;;;;;;;;5078785;28;20232;-82
2022/05/06 11:40:35;;;;;;;4.53;3.40;;;;;;;;;;5081127;28;20701;-81
2022/05/06 11:43:03;;;;;;;3.33;2.85;;;;;;;;;;5081487;28;20274;-82
2022/05/06 11:48:15;;;;;;;3.70;3.17;;;;;;;;;;5083596;28;20204;-82
2022/05/06 11:50:44;;;;;;;4.95;3.10;;;;;;;;;;5088493;28;20568;-81
2022/05/06 11:53:13;;;;;;;4.30;2.92;;;;;;;;;;5086287;28;20729;-82
2022/05/06 11:55:43;;;;;;;3.60;3.30;;;;;;;;;;5085861;28;20302;-81
2022/05/06 11:58:12;;;;;;;4.60;4.10;;;;;;;;;;5086020;28;20288;-82
2022/05/06 12:00:39;;;;;;;3.45;2.80;;;;;;;;;;5077085;28;20683;-83
2022/05/06 12:03:07;;;;;;;3.72;3.22;;;;;;;;;;5080908;28;20695;-83
2022/05/06 12:05:35;;;;;;;2.60;2.40;;;;;;;;;;5078711;28;20205;-82
2022/05/06 12:08:02;;;;;;;4.00;2.88;;;;;;;;;;5080803;28;20202;-83
2022/05/06 12:10:30;;;;;;;3.47;2.70;;;;;;;;;;5077190;28;20198;-80
2022/05/06 12:12:59;;;;;;;6.43;4.40;;;;;;;;;;5084992;28;20202;-81
2022/05/06 12:15:30;;;;;;;3.75;3.28;;;;;;;;;;5086060;28;20197;-82
2022/05/06 12:18:07;;;;;;;4.80;3.78;;;;;;;;;;5081143;28;20232;-81
2022/05/06 12:20:36;;;;;;;3.50;3.20;;;;;;;;;;5082425;28;20605;-81
2022/05/06 12:23:03;;;;;;;3.92;3.33;;;;;;;;;;5082769;28;20676;-81
2022/05/06 12:25:30;;;;;;;6.78;4.30;;;;;;;;;;5088555;28;20197;-81
2022/05/06 12:28:07;;;;;;;5.95;3.70;;;;;;;;;;5080303;28;20289;-81
2022/05/06 12:30:35;;;;;;;6.22;4.38;;;;;;;;;;5085636;28;20679;-81
2022/05/06 12:33:02;;;;;;;4.45;4.05;;;;;;;;;;5081662;28;20193;-82
2022/05/06 12:35:29;;;;;;;4.05;3.35;;;;;;;;;;5081030;28;20212;-82
2022/05/06 12:37:57;;;;;;;4.80;3.42;;;;;;;;;;5083590;28;20217;-81
2022/05/06 12:40:29;;;;;;;4.65;4.05;;;;;;;;;;5086266;28;20198;-81
2022/05/06 12:43:08;;;;;;;4.43;3.95;;;;;;;;;;5084769;28;20257;-81
2022/05/06 12:45:35;;;;;;;6.20;3.63;;;;;;;;;;5088341;28;20573;-80
2022/05/06 12:50:46;;;;;;;3.35;3.05;;;;;;;;;;5087835;28;20235;-81
2022/05/06 12:53:14;;;;;;;3.30;2.80;;;;;;;;;;5085706;28;20208;-83
2022/05/06 12:55:43;;;;;;;3.97;3.67;;;;;;;;;;5080258;28;20202;-82
2022/05/06 12:58:12;;;;;;;4.55;3.00;;;;;;;;;;5085330;28;20243;-81
2022/05/06 13:00:39;;;;;;;4.05;3.15;;;;;;;;;;5079113;28;20638;-82
2022/05/06 13:03:06;;;;;;;3.42;2.78;;;;;;;;;;5084929;28;20209;-82
2022/05/06 13:05:35;;;;;;;4.20;3.80;;;;;;;;;;5080578;28;20198;-81
2022/05/06 13:08:06;;;;;;;4.80;2.95;;;;;;;;;;5080229;28;20225;-82
2022/05/06 13:10:33;;;;;;;4.28;3.55;;;;;;;;;;5087884;28;20205;-83
2022/05/06 13:13:02;;;;;;;4.20;3.28;;;;;;;;;;5083931;28;20710;-82
2022/05/06 13:15:30;;;;;;;3.15;2.85;;;;;;;;;;5087096;28;20289;-83
2022/05/06 13:17:58;;;;;;;3.15;2.85;;;;;;;;;;5083870;28;20194;-82
2022/05/06 13:20:25;;;;;;;3.30;2.97;;;;;;;;;;5091963;28;20194;-82
2022/05/06 13:22:52;;;;;;;4.15;3.45;;;;;;;;;;5094234;28;20201;-82
2022/05/06 13:25:19;;;;;;;4.47;3.30;;;;;;;;;;5091971;28;20212;-83
2022/05/06 13:27:46;;;;;;;4.57;3.88;;;;;;;;;;5091644;28;20729;-82
2022/05/06 13:30:13;;;;;;;4.63;3.45;;;;;;;;;;5087413;28;20233;-83
2022/05/06 13:32:41;;;;;;;4.93;3.85;;;;;;;;;;5090870;28;20247;-83
2022/05/06 13:35:09;;;;;;;6.20;4.28;;;;;;;;;;5080637;28;20206;-84
2022/05/06 13:37:37;;;;;;;5.47;4.15;;;;;;;;;;5087974;28;20208;-83
2022/05/06 13:40:04;;;;;;;5.00;4.43;;;;;;;;;;5086609;28;21831;-82
2022/05/06 13:42:31;;;;;;;7.85;4.53;;;;;;;;;;5087366;28;20217;-83
2022/05/06 13:44:58;;;;;;;5.43;4.28;;;;;;;;;;5084767;28;20205;-83
2022/05/06 13:47:25;;;;;;;3.80;3.50;;;;;;;;;;5090055;28;20218;-83
2022/05/06 13:49:53;;;;;;;7.05;4.13;;;;;;;;;;5091264;28;20193;-82
2022/05/06 13:52:21;;;;;;;5.50;5.00;;;;;;;;;;5080689;28;20199;-83
2022/05/06 13:54:48;;;;;;;3.65;3.22;;;;;;;;;;5089007;28;20201;-82
2022/05/06 13:59:59;;;;;;;3.25;3.03;;;;;;;;;;5082661;28;20225;-81
2022/05/06 14:02:27;;;;;;;4.75;3.42;;;;;;;;;;5087581;28;20197;-82
2022/05/06 14:04:55;;;;;;;3.40;2.83;;;;;;;;;;5083882;28;20217;-81
2022/05/06 14:07:22;;;;;;;5.70;3.67;;;;;;;;;;5081237;28;20240;-83
2022/05/06 14:09:49;;;;;;;4.60;4.10;;;;;;;;;;5088102;28;20200;-82
2022/05/06 14:12:16;;;;;;;3.97;3.67;;;;;;;;;;5084054;28;20206;-83
2022/05/06 14:14:43;;;;;;;4.10;3.70;;;;;;;;;;5086566;28;20215;-83
2022/05/06 14:17:10;;;;;;;6.95;3.28;;;;;;;;;;5084778;28;20592;-82
2022/05/06 14:19:37;;;;;;;3.55;3.25;;;;;;;;;;5089408;28;20221;-83
2022/05/06 14:22:06;;;;;;;5.05;3.55;;;;;;;;;;5087081;28;20672;-82
2022/05/06 14:24:33;;;;;;;4.75;3.40;;;;;;;;;;5080919;28;20679;-82
2022/05/06 14:27:00;;;;;;;4.00;3.50;;;;;;;;;;5087200;28;20264;-83
2022/05/06 14:29:27;;;;;;;3.60;3.30;;;;;;;;;;5087373;28;20197;-84
2022/05/06 14:31:55;;;;;;;3.58;3.28;;;;;;;;;;5085982;28;20561;-85
2022/05/06 14:34:22;;;;;;;4.22;3.80;;;;;;;;;;5090048;28;20247;-82
2022/05/06 14:36:49;;;;;;;3.90;3.47;;;;;;;;;;5088108;28;20198;-81
2022/05/06 14:39:18;;;;;;;3.95;3.55;;;;;;;;;;5085712;28;20225;-79
2022/05/06 14:41:45;;;;;;;8.23;5.10;;;;;;;;;;5080288;28;20230;-80
2022/05/06 14:44:12;;;;;;;4.53;3.90;;;;;;;;;;5088125;28;20198;-79
2022/05/06 14:46:39;;;;;;;6.88;3.17;;;;;;;;;;5084818;28;20323;-80
2022/05/06 14:49:06;;;;;;;5.43;3.67;;;;;;;;;;5089171;28;20198;-80
2022/05/06 14:51:34;;;;;;;4.05;3.47;;;;;;;;;;5088764;28;20198;-81
2022/05/06 14:54:01;;;;;;;6.88;4.60;;;;;;;;;;5082822;28;20984;-84
2022/05/06 14:56:29;;;;;;;13.88;10.02;;;;;;;;;;5083567;28;20205;-83
2022/05/06 14:58:57;;;;;;;10.98;9.73;;;;;;;;;;5087249;28;21227;-80
2022/05/06 15:01:25;;;;;;;8.80;7.32;;;;;;;;;;5086423;28;20213;-80
2022/05/06 15:03:52;;;;;;;13.32;6.85;;;;;;;;;;5087885;28;20205;-80
2022/05/06 15:06:19;;;;;;;10.27;5.75;;;;;;;;;;5085575;28;20202;-81
2022/05/06 15:08:47;;;;;;;8.95;6.32;;;;;;;;;;5089172;28;20205;-81
2022/05/06 15:11:14;;;;;;;7.68;6.03;;;;;;;;;;5090089;28;20209;-80
2022/05/06 15:13:43;;;;;;;6.20;5.60;;;;;;;;;;5087327;28;20198;-80
2022/05/06 15:16:10;;;;;;;7.05;5.18;;;;;;;;;;5084076;28;20205;-81
2022/05/06 15:21:22;;;;;;;5.70;4.18;;;;;;;;;;5081485;28;20703;-80
2022/05/06 15:23:50;;;;;;;21.73;17.73;;;;;;;;;;5088483;28;20208;-81
2022/05/06 15:26:18;;;;;;;17.92;14.68;;;;;;;;;;5085091;28;20617;-81
2022/05/06 15:28:47;;;;;;;29.20;25.40;;;;;;;;;;5088021;28;20209;-81
2022/05/06 15:31:14;;;;;;;22.15;16.92;;;;;;;;;;5086615;28;20206;-82
2022/05/06 15:33:41;;;;;;;15.23;12.52;;;;;;;;;;5083277;28;20565;-80
2022/05/06 15:36:08;;;;;;;12.52;9.85;;;;;;;;;;5081258;28;20564;-81
2022/05/06 15:38:37;;;;;;;9.20;8.27;;;;;;;;;;5084561;28;20288;-81